Private Wetterstation Wechselburg
Wetterdaten: Mittwoch, 26.09.2012
Datum Zeit Temp. +2m Bodentemp. Temp.+5cm Temp. Wind Windchill X Diff Temp. Feuchte +2m Feuchte +5cm Sonnenschein Luftdruck Regen Wind Richtung Richtung Sonnenschein UV Taupunkt Windchill Windben
26.09.2012 00:00 12,8 C 20,7 C 13,6 C 13,2 C 13,2 C 0,4 C 84 % 88 % 0 % 1005,8 hPa 0,0 l/m 0,0 km/h (0 Bft) S 180 0 min 0,0 UV-I 10,2 C 13,2 C 0,0 km/h (0 Bft)
26.09.2012 00:05 12,7 C 20,7 C 13,6 C 13,1 C 13,1 C 0,4 C 84 % 88 % 0 % 1005,8 hPa 0,0 l/m 0,0 km/h (0 Bft) SW 225 0 min 0,0 UV-I 10,1 C 13,1 C 0,0 km/h (0 Bft)
26.09.2012 00:10 12,7 C 20,7 C 13,6 C 13,1 C 13,1 C 0,4 C 85 % 88 % 0 % 1005,8 hPa 0,0 l/m 0,0 km/h (0 Bft) W-SW 247 0 min 0,0 UV-I 10,2 C 13,1 C 0,0 km/h (0 Bft)
26.09.2012 00:15 12,6 C 20,9 C 13,6 C 13,0 C 13,0 C 0,4 C 85 % 88 % 0 % 1005,8 hPa 0,0 l/m 0,0 km/h (0 Bft) O 90 0 min 0,0 UV-I 10,1 C 13,0 C 0,0 km/h (0 Bft)
26.09.2012 00:20 12,7 C 20,9 C 13,5 C 13,1 C 13,1 C 0,4 C 85 % 88 % 0 % 1005,7 hPa 0,0 l/m 0,0 km/h (0 Bft) O-NO 67 0 min 0,0 UV-I 10,2 C 13,1 C 2,3 km/h (1 Bft)
26.09.2012 00:25 12,7 C 20,9 C 13,4 C 13,2 C 13,2 C 0,5 C 85 % 88 % 0 % 1005,7 hPa 0,0 l/m 0,8 km/h (0 Bft) O 90 0 min 0,0 UV-I 10,2 C 13,2 C 0,0 km/h (0 Bft)
26.09.2012 00:30 12,7 C 20,8 C 13,5 C 13,2 C 13,2 C 0,5 C 85 % 89 % 0 % 1005,7 hPa 0,0 l/m 0,8 km/h (0 Bft) SW 225 0 min 0,0 UV-I 10,2 C 13,2 C 0,0 km/h (0 Bft)
26.09.2012 00:35 12,7 C 20,9 C 13,5 C 13,0 C 13,0 C 0,3 C 86 % 89 % 0 % 1005,7 hPa 0,0 l/m 0,0 km/h (0 Bft) S 180 0 min 0,0 UV-I 10,4 C 13,0 C 0,0 km/h (0 Bft)
26.09.2012 00:41 12,7 C 21,0 C 13,5 C 13,0 C 13,0 C 0,3 C 86 % 89 % 0 % 1005,5 hPa 0,0 l/m 0,0 km/h (0 Bft) N 0 0 min 0,0 UV-I 10,4 C 13,0 C 1,6 km/h (1 Bft)
26.09.2012 00:55 12,5 C 20,8 C 13,3 C 13,0 C 13,0 C 0,5 C 86 % 89 % 0 % 1005,5 hPa 0,0 l/m 1,1 km/h (1 Bft) W-SW 247 0 min 0,0 UV-I 10,2 C 13,0 C 2,6 km/h (1 Bft)
26.09.2012 01:00 12,5 C 20,9 C 13,4 C 12,9 C 12,9 C 0,4 C 86 % 89 % 0 % 1004,9 hPa 0,0 l/m 1,1 km/h (1 Bft) O 90 0 min 0,0 UV-I 10,2 C 12,9 C 4,2 km/h (1 Bft)
26.09.2012 01:05 12,5 C 20,9 C 13,3 C 12,8 C 12,8 C 0,3 C 86 % 89 % 0 % 1004,9 hPa 0,0 l/m 0,2 km/h (0 Bft) S 180 0 min 0,0 UV-I 10,2 C 12,8 C 0,0 km/h (0 Bft)
26.09.2012 01:10 12,4 C 20,9 C 13,3 C 12,8 C 12,8 C 0,4 C 86 % 89 % 0 % 1004,9 hPa 0,0 l/m 0,0 km/h (0 Bft) W 270 0 min 0,0 UV-I 10,1 C 12,8 C 0,0 km/h (0 Bft)
26.09.2012 01:15 12,5 C 20,9 C 13,2 C 12,6 C 12,6 C 0,1 C 87 % 89 % 0 % 1004,9 hPa 0,0 l/m 0,0 km/h (0 Bft) O 90 0 min 0,0 UV-I 10,4 C 12,6 C 0,0 km/h (0 Bft)
26.09.2012 01:20 12,4 C 20,9 C 13,2 C 12,6 C 12,6 C 0,2 C 87 % 90 % 0 % 1004,9 hPa 0,0 l/m 0,3 km/h (0 Bft) O-NO 67 0 min 0,0 UV-I 10,3 C 12,6 C 1,8 km/h (1 Bft)
26.09.2012 01:25 12,3 C 20,9 C 13,1 C 12,6 C 12,6 C 0,3 C 87 % 90 % 0 % 1004,9 hPa 0,0 l/m 0,3 km/h (0 Bft) NO 45 0 min 0,0 UV-I 10,2 C 12,6 C 0,0 km/h (0 Bft)
26.09.2012 01:30 12,3 C 20,9 C 13,1 C 12,6 C 12,6 C 0,3 C 87 % 90 % 0 % 1004,9 hPa 0,0 l/m 0,2 km/h (0 Bft) NO 45 0 min 0,0 UV-I 10,2 C 12,6 C 0,0 km/h (0 Bft)
26.09.2012 01:35 12,2 C 20,9 C 13,1 C 12,6 C 12,6 C 0,4 C 87 % 90 % 0 % 1004,9 hPa 0,0 l/m 0,0 km/h (0 Bft) O-NO 67 0 min 0,0 UV-I 10,1 C 12,6 C 0,0 km/h (0 Bft)
26.09.2012 01:40 12,3 C 20,9 C 13,0 C 12,5 C 12,5 C 0,2 C 87 % 90 % 0 % 1004,9 hPa 0,0 l/m 0,0 km/h (0 Bft) N-NW 337 0 min 0,0 UV-I 10,2 C 12,5 C 0,0 km/h (0 Bft)
26.09.2012 01:45 12,3 C 20,8 C 13,1 C 12,6 C 12,6 C 0,3 C 87 % 90 % 0 % 1004,9 hPa 0,0 l/m 0,0 km/h (0 Bft) SW 225 0 min 0,0 UV-I 10,2 C 12,6 C 0,0 km/h (0 Bft)
26.09.2012 01:50 12,3 C 20,8 C 13,1 C 12,5 C 12,5 C 0,2 C 87 % 90 % 0 % 1004,9 hPa 0,0 l/m 0,0 km/h (0 Bft) W-SW 247 0 min 0,0 UV-I 10,2 C 12,5 C 0,0 km/h (0 Bft)
26.09.2012 01:55 12,1 C 20,9 C 13,0 C 12,5 C 12,5 C 0,4 C 87 % 90 % 0 % 1004,9 hPa 0,0 l/m 0,0 km/h (0 Bft) O-NO 67 0 min 0,0 UV-I 10,0 C 12,5 C 0,0 km/h (0 Bft)
26.09.2012 02:00 12,1 C 20,9 C 13,1 C 12,5 C 12,5 C 0,4 C 87 % 90 % 0 % 1004,8 hPa 0,0 l/m 0,0 km/h (0 Bft) O-NO 67 0 min 0,0 UV-I 10,0 C 12,5 C 0,0 km/h (0 Bft)
26.09.2012 02:05 12,0 C 20,8 C 13,1 C 12,4 C 12,4 C 0,4 C 87 % 90 % 0 % 1004,8 hPa 0,0 l/m 0,0 km/h (0 Bft) O-NO 67 0 min 0,0 UV-I 9,9 C 12,4 C 0,0 km/h (0 Bft)
26.09.2012 02:10 12,0 C 20,8 C 13,1 C 12,4 C 12,4 C 0,4 C 87 % 90 % 0 % 1004,8 hPa 0,0 l/m 0,0 km/h (0 Bft) O-NO 67 0 min 0,0 UV-I 9,9 C 12,4 C 0,0 km/h (0 Bft)
26.09.2012 02:15 12,0 C 20,8 C 12,9 C 12,4 C 12,4 C 0,4 C 87 % 90 % 0 % 1004,8 hPa 0,0 l/m 0,0 km/h (0 Bft) O-NO 67 0 min 0,0 UV-I 9,9 C 12,4 C 0,0 km/h (0 Bft)
26.09.2012 02:20 12,1 C 20,8 C 12,9 C 12,4 C 12,4 C 0,3 C 87 % 90 % 0 % 1004,6 hPa 0,0 l/m 0,0 km/h (0 Bft) O 90 0 min 0,0 UV-I 10,0 C 12,4 C 0,0 km/h (0 Bft)
26.09.2012 02:25 12,0 C 20,8 C 12,9 C 12,4 C 12,4 C 0,4 C 87 % 90 % 0 % 1004,6 hPa 0,0 l/m 0,2 km/h (0 Bft) O-NO 67 0 min 0,0 UV-I 9,9 C 12,4 C 1,6 km/h (1 Bft)
26.09.2012 02:30 12,0 C 20,8 C 12,8 C 12,4 C 12,4 C 0,4 C 88 % 90 % 0 % 1004,6 hPa 0,0 l/m 0,2 km/h (0 Bft) NO 45 0 min 0,0 UV-I 10,1 C 12,4 C 0,0 km/h (0 Bft)
26.09.2012 02:35 12,0 C 20,8 C 12,8 C 12,4 C 12,4 C 0,4 C 88 % 91 % 0 % 1004,6 hPa 0,0 l/m 0,2 km/h (0 Bft) W-SW 247 0 min 0,0 UV-I 10,1 C 12,4 C 2,9 km/h (1 Bft)
26.09.2012 02:40 12,0 C 20,8 C 12,9 C 12,4 C 12,4 C 0,4 C 88 % 91 % 0 % 1005,2 hPa 0,0 l/m 0,8 km/h (0 Bft) S 180 0 min 0,0 UV-I 10,1 C 12,4 C 3,7 km/h (1 Bft)
26.09.2012 02:45 12,0 C 20,8 C 12,9 C 12,4 C 12,4 C 0,4 C 88 % 91 % 0 % 1005,2 hPa 0,0 l/m 1,0 km/h (0 Bft) O 90 0 min 0,0 UV-I 10,1 C 12,4 C 0,0 km/h (0 Bft)
26.09.2012 02:50 11,9 C 20,8 C 12,9 C 12,4 C 12,4 C 0,5 C 88 % 91 % 0 % 1005,2 hPa 0,0 l/m 1,1 km/h (1 Bft) NO 45 0 min 0,0 UV-I 10,0 C 12,4 C 1,6 km/h (1 Bft)
26.09.2012 02:55 11,9 C 20,8 C 12,9 C 12,4 C 12,4 C 0,5 C 88 % 91 % 0 % 1005,2 hPa 0,0 l/m 0,6 km/h (0 Bft) W 270 0 min 0,0 UV-I 10,0 C 12,4 C 0,0 km/h (0 Bft)
26.09.2012 03:00 11,9 C 20,8 C 12,8 C 12,4 C 12,4 C 0,5 C 88 % 91 % 0 % 1004,3 hPa 0,0 l/m 0,2 km/h (0 Bft) O-NO 67 0 min 0,0 UV-I 10,0 C 12,4 C 0,0 km/h (0 Bft)
26.09.2012 03:05 11,9 C 20,8 C 12,9 C 12,3 C 12,3 C 0,4 C 88 % 91 % 0 % 1004,3 hPa 0,0 l/m 0,0 km/h (0 Bft) N-NW 337 0 min 0,0 UV-I 10,0 C 12,3 C 0,0 km/h (0 Bft)
26.09.2012 03:10 11,9 C 20,7 C 12,8 C 12,3 C 12,3 C 0,4 C 88 % 91 % 0 % 1004,3 hPa 0,0 l/m 0,0 km/h (0 Bft) NW 315 0 min 0,0 UV-I 10,0 C 12,3 C 0,0 km/h (0 Bft)
26.09.2012 03:15 11,9 C 20,7 C 12,9 C 12,2 C 12,2 C 0,3 C 88 % 91 % 0 % 1004,3 hPa 0,0 l/m 0,0 km/h (0 Bft) S-SW 202 0 min 0,0 UV-I 10,0 C 12,2 C 0,0 km/h (0 Bft)
26.09.2012 03:20 11,8 C 20,7 C 12,8 C 12,1 C 12,1 C 0,3 C 88 % 91 % 0 % 1004,6 hPa 0,0 l/m 0,0 km/h (0 Bft) O 90 0 min 0,0 UV-I 9,9 C 12,1 C 0,0 km/h (0 Bft)
26.09.2012 03:25 11,7 C 20,8 C 12,5 C 11,9 C 11,9 C 0,2 C 88 % 90 % 0 % 1004,6 hPa 0,0 l/m 0,0 km/h (0 Bft) O-NO 67 0 min 0,0 UV-I 9,8 C 11,9 C 0,0 km/h (0 Bft)
26.09.2012 03:30 11,6 C 20,8 C 12,5 C 11,8 C 11,8 C 0,2 C 88 % 90 % 0 % 1004,6 hPa 0,0 l/m 0,0 km/h (0 Bft) O-NO 67 0 min 0,0 UV-I 9,7 C 11,8 C 0,0 km/h (0 Bft)
26.09.2012 03:35 11,5 C 20,7 C 12,3 C 11,5 C 11,5 C 0,0 C 88 % 90 % 0 % 1004,6 hPa 0,0 l/m 0,0 km/h (0 Bft) O-NO 67 0 min 0,0 UV-I 9,6 C 11,5 C 0,0 km/h (0 Bft)
26.09.2012 03:40 11,4 C 20,7 C 12,2 C 11,5 C 11,5 C 0,1 C 88 % 90 % 0 % 1004,1 hPa 0,0 l/m 0,0 km/h (0 Bft) NO 45 0 min 0,0 UV-I 9,5 C 11,5 C 0,0 km/h (0 Bft)
26.09.2012 03:45 11,3 C 20,7 C 12,3 C 11,3 C 11,3 C 0,0 C 88 % 91 % 0 % 1004,1 hPa 0,0 l/m 0,0 km/h (0 Bft) W-SW 247 0 min 0,0 UV-I 9,4 C 11,3 C 0,0 km/h (0 Bft)
26.09.2012 03:50 11,2 C 20,7 C 12,3 C 11,2 C 11,2 C 0,0 C 88 % 91 % 0 % 1004,1 hPa 0,0 l/m 0,0 km/h (0 Bft) W 270 0 min 0,0 UV-I 9,3 C 11,2 C 0,0 km/h (0 Bft)
26.09.2012 03:55 11,1 C 20,7 C 12,0 C 11,1 C 11,1 C 0,0 C 88 % 91 % 0 % 1004,1 hPa 0,0 l/m 0,0 km/h (0 Bft) W 270 0 min 0,0 UV-I 9,2 C 11,1 C 0,0 km/h (0 Bft)
26.09.2012 04:00 11,1 C 20,7 C 12,0 C 11,1 C 11,0 C 0,0 C 88 % 91 % 0 % 1003,9 hPa 0,0 l/m 0,0 km/h (0 Bft) W 270 0 min 0,0 UV-I 9,2 C 11,0 C 0,0 km/h (0 Bft)
26.09.2012 04:05 10,9 C 20,7 C 11,9 C 10,9 C 10,8 C 0,0 C 88 % 91 % 0 % 1003,9 hPa 0,0 l/m 0,0 km/h (0 Bft) O-NO 67 0 min 0,0 UV-I 9,0 C 10,8 C 0,0 km/h (0 Bft)
26.09.2012 04:10 10,9 C 20,7 C 11,9 C 10,9 C 10,9 C 0,0 C 88 % 91 % 0 % 1003,9 hPa 0,0 l/m 0,0 km/h (0 Bft) O 90 0 min 0,0 UV-I 9,0 C 10,9 C 0,0 km/h (0 Bft)
26.09.2012 04:15 10,8 C 20,7 C 11,6 C 10,9 C 10,9 C 0,1 C 88 % 91 % 0 % 1003,9 hPa 0,0 l/m 0,0 km/h (0 Bft) O-NO 67 0 min 0,0 UV-I 8,9 C 10,9 C 0,0 km/h (0 Bft)
26.09.2012 04:20 10,8 C 20,7 C 11,6 C 10,8 C 10,8 C 0,0 C 88 % 91 % 0 % 1004,0 hPa 0,0 l/m 0,0 km/h (0 Bft) O-NO 67 0 min 0,0 UV-I 8,9 C 10,8 C 0,0 km/h (0 Bft)
26.09.2012 04:25 10,7 C 20,7 C 11,6 C 10,8 C 10,8 C 0,1 C 89 % 91 % 0 % 1004,0 hPa 0,0 l/m 0,0 km/h (0 Bft) O 90 0 min 0,0 UV-I 9,0 C 10,8 C 0,0 km/h (0 Bft)
26.09.2012 04:30 10,7 C 20,6 C 11,5 C 10,7 C 10,7 C 0,0 C 89 % 91 % 0 % 1004,0 hPa 0,0 l/m 0,0 km/h (0 Bft) S-SW 202 0 min 0,0 UV-I 9,0 C 10,7 C 0,0 km/h (0 Bft)
26.09.2012 04:35 10,7 C 20,6 C 11,3 C 10,7 C 10,7 C 0,0 C 89 % 91 % 0 % 1004,0 hPa 0,0 l/m 0,0 km/h (0 Bft) O-NO 67 0 min 0,0 UV-I 9,0 C 10,7 C 0,0 km/h (0 Bft)
26.09.2012 04:40 10,6 C 20,6 C 11,3 C 10,7 C 10,7 C 0,1 C 89 % 91 % 0 % 1003,9 hPa 0,0 l/m 0,0 km/h (0 Bft) O-NO 67 0 min 0,0 UV-I 8,9 C 10,7 C 0,0 km/h (0 Bft)
26.09.2012 04:45 10,4 C 20,6 C 11,3 C 10,5 C 10,5 C 0,1 C 88 % 91 % 0 % 1003,9 hPa 0,0 l/m 0,0 km/h (0 Bft) W 270 0 min 0,0 UV-I 8,5 C 10,5 C 0,0 km/h (0 Bft)
26.09.2012 04:50 10,5 C 20,6 C 11,3 C 10,5 C 10,5 C 0,0 C 89 % 91 % 0 % 1003,9 hPa 0,0 l/m 0,0 km/h (0 Bft) NW 315 0 min 0,0 UV-I 8,8 C 10,5 C 0,0 km/h (0 Bft)
26.09.2012 04:55 10,4 C 20,6 C 11,3 C 10,5 C 10,5 C 0,1 C 89 % 91 % 0 % 1003,9 hPa 0,0 l/m 0,0 km/h (0 Bft) NW 315 0 min 0,0 UV-I 8,7 C 10,5 C 0,0 km/h (0 Bft)
26.09.2012 05:00 10,3 C 20,6 C 11,3 C 10,5 C 10,5 C 0,2 C 89 % 92 % 0 % 1003,8 hPa 0,0 l/m 0,0 km/h (0 Bft) N-NW 337 0 min 0,0 UV-I 8,6 C 10,5 C 0,0 km/h (0 Bft)
26.09.2012 05:05 10,3 C 20,6 C 11,2 C 10,5 C 10,5 C 0,2 C 89 % 92 % 0 % 1003,8 hPa 0,0 l/m 0,0 km/h (0 Bft) N-NW 337 0 min 0,0 UV-I 8,6 C 10,5 C 0,0 km/h (0 Bft)
26.09.2012 05:10 10,3 C 20,6 C 11,3 C 10,5 C 10,5 C 0,2 C 89 % 92 % 0 % 1003,8 hPa 0,0 l/m 0,0 km/h (0 Bft) W-SW 247 0 min 0,0 UV-I 8,6 C 10,5 C 0,0 km/h (0 Bft)
26.09.2012 05:15 10,3 C 20,6 C 11,3 C 10,5 C 10,5 C 0,2 C 89 % 92 % 0 % 1003,8 hPa 0,0 l/m 0,0 km/h (0 Bft) S-SW 202 0 min 0,0 UV-I 8,6 C 10,5 C 0,0 km/h (0 Bft)
26.09.2012 05:20 10,2 C 20,6 C 11,2 C 10,6 C 10,6 C 0,4 C 89 % 92 % 0 % 1003,8 hPa 0,0 l/m 0,0 km/h (0 Bft) O-NO 67 0 min 0,0 UV-I 8,5 C 10,6 C 0,0 km/h (0 Bft)
26.09.2012 05:25 10,2 C 20,7 C 11,3 C 10,6 C 10,6 C 0,4 C 89 % 92 % 0 % 1003,8 hPa 0,0 l/m 0,0 km/h (0 Bft) O 90 0 min 0,0 UV-I 8,5 C 10,6 C 0,0 km/h (0 Bft)
26.09.2012 05:30 10,1 C 20,7 C 11,2 C 10,6 C 10,6 C 0,5 C 89 % 92 % 0 % 1003,8 hPa 0,0 l/m 0,0 km/h (0 Bft) NO 45 0 min 0,0 UV-I 8,4 C 10,6 C 0,0 km/h (0 Bft)
26.09.2012 05:35 10,1 C 20,7 C 11,3 C 10,5 C 10,5 C 0,4 C 89 % 92 % 0 % 1003,8 hPa 0,0 l/m 0,0 km/h (0 Bft) O-NO 67 0 min 0,0 UV-I 8,4 C 10,5 C 0,0 km/h (0 Bft)
26.09.2012 05:40 10,3 C 20,7 C 11,2 C 10,6 C 10,6 C 0,3 C 90 % 92 % 0 % 1003,6 hPa 0,0 l/m 0,0 km/h (0 Bft) O-SO 112 0 min 0,0 UV-I 8,7 C 10,6 C 0,0 km/h (0 Bft)
26.09.2012 05:45 10,3 C 20,7 C 11,3 C 10,7 C 10,7 C 0,4 C 90 % 92 % 0 % 1003,6 hPa 0,0 l/m 0,0 km/h (0 Bft) O-NO 67 0 min 0,0 UV-I 8,7 C 10,7 C 0,0 km/h (0 Bft)
26.09.2012 05:50 10,3 C 20,6 C 11,2 C 10,7 C 10,7 C 0,4 C 90 % 92 % 0 % 1003,6 hPa 0,0 l/m 0,0 km/h (0 Bft) NW 315 0 min 0,0 UV-I 8,7 C 10,7 C 0,0 km/h (0 Bft)
26.09.2012 05:55 10,3 C 20,6 C 11,2 C 10,6 C 10,6 C 0,3 C 90 % 92 % 0 % 1003,6 hPa 0,0 l/m 0,0 km/h (0 Bft) W-SW 247 0 min 0,0 UV-I 8,7 C 10,6 C 0,0 km/h (0 Bft)
26.09.2012 06:00 10,2 C 20,6 C 11,2 C 10,5 C 10,5 C 0,3 C 90 % 92 % 0 % 1003,7 hPa 0,0 l/m 0,0 km/h (0 Bft) O-NO 67 0 min 0,0 UV-I 8,6 C 10,5 C 0,0 km/h (0 Bft)
26.09.2012 06:05 10,1 C 20,6 C 11,2 C 10,6 C 10,6 C 0,5 C 90 % 92 % 0 % 1003,7 hPa 0,0 l/m 0,0 km/h (0 Bft) O-NO 67 0 min 0,0 UV-I 8,5 C 10,6 C 0,0 km/h (0 Bft)
26.09.2012 06:10 10,1 C 20,6 C 11,2 C 10,6 C 10,6 C 0,5 C 90 % 92 % 0 % 1003,7 hPa 0,0 l/m 0,0 km/h (0 Bft) O-NO 67 0 min 0,0 UV-I 8,5 C 10,6 C 0,0 km/h (0 Bft)
26.09.2012 06:15 10,1 C 20,6 C 11,2 C 10,5 C 10,5 C 0,4 C 90 % 92 % 0 % 1003,7 hPa 0,0 l/m 0,0 km/h (0 Bft) SW 225 0 min 0,0 UV-I 8,5 C 10,5 C 0,0 km/h (0 Bft)
26.09.2012 06:20 10,0 C 20,5 C 11,2 C 10,4 C 10,4 C 0,4 C 90 % 92 % 0 % 1003,4 hPa 0,0 l/m 0,0 km/h (0 Bft) W-SW 247 0 min 0,0 UV-I 8,4 C 10,4 C 0,0 km/h (0 Bft)
26.09.2012 06:25 10,0 C 20,6 C 11,1 C 10,2 C 10,2 C 0,2 C 90 % 92 % 0 % 1003,4 hPa 0,0 l/m 0,0 km/h (0 Bft) SW 225 0 min 0,0 UV-I 8,4 C 10,2 C 0,0 km/h (0 Bft)
26.09.2012 06:30 9,9 C 20,5 C 11,1 C 10,2 C 10,2 C 0,3 C 90 % 92 % 0 % 1003,4 hPa 0,0 l/m 0,0 km/h (0 Bft) W-SW 247 0 min 0,0 UV-I 8,3 C 10,2 C 0,0 km/h (0 Bft)
26.09.2012 06:35 9,8 C 20,6 C 11,1 C 10,1 C 10,1 C 0,3 C 90 % 92 % 0 % 1003,4 hPa 0,0 l/m 0,0 km/h (0 Bft) S-SW 202 0 min 0,0 UV-I 8,2 C 10,1 C 0,0 km/h (0 Bft)
26.09.2012 06:42 9,9 C 20,5 C 11,1 C 10,2 C 10,2 C 0,3 C 90 % 92 % 0 % 1003,4 hPa 0,0 l/m 0,0 km/h (0 Bft) N 0 0 min 0,0 UV-I 8,3 C 10,2 C 0,0 km/h (0 Bft)
26.09.2012 06:55 10,0 C 20,5 C 11,1 C 10,4 C 10,4 C 0,4 C 90 % 92 % 0 % 1003,4 hPa 0,0 l/m 0,0 km/h (0 Bft) O-NO 67 0 min 0,0 UV-I 8,4 C 10,4 C 0,0 km/h (0 Bft)
26.09.2012 07:00 10,0 C 20,5 C 11,1 C 10,5 C 10,5 C 0,5 C 91 % 92 % 0 % 1002,7 hPa 0,0 l/m 0,0 km/h (0 Bft) O-SO 112 0 min 0,0 UV-I 8,6 C 10,5 C 0,0 km/h (0 Bft)
26.09.2012 07:05 10,0 C 20,5 C 11,1 C 10,5 C 10,5 C 0,5 C 91 % 92 % 0 % 1002,7 hPa 0,0 l/m 0,0 km/h (0 Bft) W 270 0 min 0,0 UV-I 8,6 C 10,5 C 0,0 km/h (0 Bft)
26.09.2012 07:10 9,9 C 20,5 C 11,1 C 10,4 C 10,4 C 0,5 C 90 % 92 % 0 % 1002,7 hPa 0,0 l/m 0,0 km/h (0 Bft) W-SW 247 0 min 0,0 UV-I 8,3 C 10,4 C 0,0 km/h (0 Bft)
26.09.2012 07:15 9,8 C 20,5 C 10,9 C 10,2 C 10,2 C 0,4 C 90 % 92 % 11 % 1002,7 hPa 0,0 l/m 0,0 km/h (0 Bft) O 90 5 min 0,0 UV-I 8,2 C 10,2 C 0,0 km/h (0 Bft)
26.09.2012 07:20 9,9 C 20,5 C 10,9 C 10,2 C 10,2 C 0,3 C 90 % 91 % 8 % 1002,8 hPa 0,0 l/m 0,0 km/h (0 Bft) O 90 0 min 0,0 UV-I 8,3 C 10,2 C 0,0 km/h (0 Bft)
26.09.2012 07:25 9,9 C 20,5 C 10,9 C 10,5 C 10,5 C 0,6 C 90 % 92 % 16 % 1002,8 hPa 0,0 l/m 0,0 km/h (0 Bft) O-NO 67 5 min 0,0 UV-I 8,3 C 10,5 C 0,0 km/h (0 Bft)
26.09.2012 07:30 9,8 C 20,5 C 10,9 C 10,9 C 10,9 C 1,1 C 90 % 92 % 29 % 1002,8 hPa 0,0 l/m 0,0 km/h (0 Bft) S 180 5 min 0,0 UV-I 8,2 C 10,9 C 0,0 km/h (0 Bft)
26.09.2012 07:35 9,9 C 20,5 C 10,9 C 11,0 C 11,0 C 1,1 C 90 % 92 % 29 % 1002,8 hPa 0,0 l/m 0,0 km/h (0 Bft) NW 315 5 min 0,0 UV-I 8,3 C 11,0 C 0,0 km/h (0 Bft)
26.09.2012 07:40 9,9 C 20,4 C 10,9 C 10,7 C 10,7 C 0,8 C 90 % 92 % 21 % 1002,5 hPa 0,0 l/m 0,0 km/h (0 Bft) N-NW 337 0 min 0,0 UV-I 8,3 C 10,7 C 0,0 km/h (0 Bft)
26.09.2012 07:45 9,9 C 20,4 C 10,8 C 10,5 C 10,5 C 0,6 C 90 % 92 % 16 % 1002,5 hPa 0,0 l/m 0,0 km/h (0 Bft) NW 315 0 min 0,0 UV-I 8,3 C 10,5 C 0,0 km/h (0 Bft)
26.09.2012 07:50 9,9 C 20,4 C 10,8 C 10,5 C 10,5 C 0,6 C 90 % 92 % 16 % 1002,5 hPa 0,0 l/m 0,0 km/h (0 Bft) N-NW 337 0 min 0,0 UV-I 8,3 C 10,5 C 0,0 km/h (0 Bft)
26.09.2012 07:55 9,9 C 20,4 C 10,9 C 10,5 C 10,5 C 0,6 C 90 % 92 % 16 % 1002,5 hPa 0,0 l/m 0,0 km/h (0 Bft) NW 315 0 min 0,0 UV-I 8,3 C 10,5 C 0,0 km/h (0 Bft)
26.09.2012 08:00 9,9 C 20,4 C 11,1 C 10,7 C 10,7 C 0,8 C 90 % 92 % 21 % 1002,2 hPa 0,0 l/m 0,0 km/h (0 Bft) N 360 0 min 0,0 UV-I 8,3 C 10,7 C 0,0 km/h (0 Bft)
26.09.2012 08:05 9,9 C 20,4 C 11,1 C 10,9 C 10,9 C 1,0 C 90 % 92 % 26 % 1002,2 hPa 0,0 l/m 0,0 km/h (0 Bft) W-SW 247 0 min 0,0 UV-I 8,3 C 10,9 C 0,0 km/h (0 Bft)
26.09.2012 08:10 10,0 C 20,4 C 11,2 C 10,8 C 10,8 C 0,8 C 91 % 92 % 21 % 1002,2 hPa 0,0 l/m 0,0 km/h (0 Bft) W-SW 247 0 min 0,0 UV-I 8,6 C 10,8 C 0,0 km/h (0 Bft)
26.09.2012 08:15 10,1 C 20,3 C 11,2 C 10,9 C 10,9 C 0,8 C 91 % 92 % 21 % 1002,2 hPa 0,0 l/m 0,0 km/h (0 Bft) W-SW 247 0 min 0,0 UV-I 8,7 C 10,9 C 0,0 km/h (0 Bft)
26.09.2012 08:20 10,0 C 20,3 C 11,3 C 10,9 C 10,9 C 0,9 C 91 % 92 % 24 % 1002,2 hPa 0,0 l/m 0,0 km/h (0 Bft) SW 225 0 min 0,0 UV-I 8,6 C 10,9 C 0,0 km/h (0 Bft)
26.09.2012 08:25 10,1 C 20,3 C 11,5 C 11,1 C 11,1 C 1,0 C 91 % 92 % 26 % 1002,2 hPa 0,0 l/m 0,0 km/h (0 Bft) N 360 0 min 0,0 UV-I 8,7 C 11,1 C 0,0 km/h (0 Bft)
26.09.2012 08:30 10,3 C 20,3 C 11,6 C 11,3 C 11,3 C 1,0 C 91 % 92 % 26 % 1002,2 hPa 0,0 l/m 0,0 km/h (0 Bft) W-SW 247 0 min 0,0 UV-I 8,9 C 11,3 C 0,0 km/h (0 Bft)
26.09.2012 08:35 10,4 C 20,2 C 11,8 C 11,5 C 11,5 C 1,1 C 91 % 92 % 29 % 1002,2 hPa 0,0 l/m 0,0 km/h (0 Bft) W-NW 292 0 min 0,0 UV-I 9,0 C 11,5 C 0,0 km/h (0 Bft)
26.09.2012 08:40 10,4 C 20,2 C 11,9 C 11,7 C 11,7 C 1,3 C 91 % 92 % 34 % 1002,6 hPa 0,0 l/m 0,0 km/h (0 Bft) SW 225 0 min 0,0 UV-I 9,0 C 11,7 C 0,0 km/h (0 Bft)
26.09.2012 08:45 10,6 C 20,2 C 12,1 C 11,9 C 11,9 C 1,3 C 91 % 92 % 34 % 1002,6 hPa 0,0 l/m 0,0 km/h (0 Bft) S-SO 157 0 min 0,0 UV-I 9,2 C 11,9 C 0,0 km/h (0 Bft)
26.09.2012 08:50 10,8 C 20,2 C 12,1 C 12,0 C 12,0 C 1,2 C 92 % 92 % 32 % 1002,6 hPa 0,0 l/m 0,0 km/h (0 Bft) S-SO 157 0 min 0,0 UV-I 9,6 C 12,0 C 0,0 km/h (0 Bft)
26.09.2012 08:55 10,9 C 20,2 C 12,3 C 12,2 C 12,2 C 1,3 C 92 % 93 % 34 % 1002,6 hPa 0,0 l/m 0,0 km/h (0 Bft) SO 135 0 min 0,0 UV-I 9,7 C 12,2 C 0,0 km/h (0 Bft)
26.09.2012 09:00 11,1 C 20,2 C 12,3 C 12,4 C 12,4 C 1,3 C 92 % 93 % 34 % 1002,4 hPa 0,0 l/m 0,0 km/h (0 Bft) SW 225 0 min 0,0 UV-I 9,8 C 12,4 C 0,0 km/h (0 Bft)
26.09.2012 09:05 11,2 C 20,2 C 12,4 C 12,6 C 12,6 C 1,4 C 92 % 93 % 37 % 1002,4 hPa 0,0 l/m 0,0 km/h (0 Bft) W-SW 247 0 min 0,0 UV-I 9,9 C 12,6 C 0,0 km/h (0 Bft)
26.09.2012 09:10 11,3 C 20,2 C 12,4 C 12,6 C 12,6 C 1,3 C 92 % 92 % 34 % 1002,4 hPa 0,0 l/m 0,0 km/h (0 Bft) W-SW 247 0 min 0,0 UV-I 10,0 C 12,6 C 0,0 km/h (0 Bft)
26.09.2012 09:15 11,3 C 20,2 C 12,4 C 12,6 C 12,6 C 1,3 C 92 % 92 % 34 % 1002,4 hPa 0,0 l/m 0,0 km/h (0 Bft) O-SO 112 0 min 0,0 UV-I 10,0 C 12,6 C 0,0 km/h (0 Bft)
26.09.2012 09:20 11,3 C 20,2 C 12,5 C 12,7 C 12,7 C 1,4 C 92 % 92 % 37 % 1002,6 hPa 0,0 l/m 0,0 km/h (0 Bft) O 90 0 min 0,0 UV-I 10,0 C 12,7 C 0,0 km/h (0 Bft)
26.09.2012 09:25 11,5 C 20,2 C 12,7 C 13,0 C 13,0 C 1,5 C 92 % 92 % 39 % 1002,6 hPa 0,0 l/m 0,0 km/h (0 Bft) NO 45 0 min 0,0 UV-I 10,2 C 13,0 C 0,0 km/h (0 Bft)
26.09.2012 09:30 11,7 C 20,2 C 12,8 C 13,4 C 13,4 C 1,7 C 92 % 92 % 45 % 1002,6 hPa 0,0 l/m 0,0 km/h (0 Bft) O 90 0 min 0,1 UV-I 10,4 C 13,4 C 0,0 km/h (0 Bft)
26.09.2012 09:35 11,9 C 20,2 C 13,1 C 13,7 C 13,7 C 1,8 C 92 % 92 % 47 % 1002,6 hPa 0,0 l/m 0,0 km/h (0 Bft) O-NO 67 0 min 0,1 UV-I 10,6 C 13,7 C 0,0 km/h (0 Bft)
26.09.2012 09:40 12,1 C 20,1 C 13,2 C 14,1 C 14,1 C 2,0 C 92 % 92 % 53 % 1002,4 hPa 0,0 l/m 0,0 km/h (0 Bft) S 180 0 min 0,2 UV-I 10,8 C 14,1 C 0,0 km/h (0 Bft)
26.09.2012 09:45 12,3 C 20,1 C 13,3 C 14,6 C 14,6 C 2,3 C 93 % 92 % 61 % 1002,4 hPa 0,0 l/m 0,0 km/h (0 Bft) W 270 0 min 0,2 UV-I 11,2 C 14,6 C 0,0 km/h (0 Bft)
26.09.2012 09:50 12,4 C 20,1 C 13,4 C 14,8 C 14,8 C 2,4 C 93 % 92 % 63 % 1002,4 hPa 0,0 l/m 0,0 km/h (0 Bft) W-SW 247 0 min 0,2 UV-I 11,3 C 14,8 C 0,0 km/h (0 Bft)
26.09.2012 09:55 12,5 C 20,0 C 13,5 C 15,0 C 15,0 C 2,5 C 92 % 91 % 66 % 1002,4 hPa 0,0 l/m 0,0 km/h (0 Bft) N-NW 337 0 min 0,2 UV-I 11,2 C 15,0 C 0,0 km/h (0 Bft)
26.09.2012 10:00 12,6 C 20,0 C 13,6 C 15,1 C 15,1 C 2,5 C 92 % 91 % 66 % 1002,4 hPa 0,0 l/m 0,0 km/h (0 Bft) N-NW 337 0 min 0,3 UV-I 11,3 C 15,1 C 0,0 km/h (0 Bft)
26.09.2012 10:05 12,8 C 20,0 C 13,9 C 15,4 C 15,4 C 2,6 C 92 % 92 % 68 % 1002,4 hPa 0,0 l/m 0,0 km/h (0 Bft) NW 315 0 min 0,3 UV-I 11,5 C 15,4 C 0,0 km/h (0 Bft)
26.09.2012 10:10 13,1 C 20,0 C 14,0 C 15,7 C 15,7 C 2,6 C 91 % 92 % 68 % 1002,4 hPa 0,0 l/m 0,0 km/h (0 Bft) W 270 0 min 0,4 UV-I 11,7 C 15,7 C 0,0 km/h (0 Bft)
26.09.2012 10:15 13,5 C 19,9 C 14,2 C 16,1 C 16,1 C 2,6 C 91 % 91 % 68 % 1002,4 hPa 0,0 l/m 0,0 km/h (0 Bft) NW 315 0 min 0,5 UV-I 12,1 C 16,1 C 0,0 km/h (0 Bft)
26.09.2012 10:20 13,6 C 19,9 C 14,3 C 16,3 C 16,3 C 2,7 C 91 % 91 % 71 % 1002,5 hPa 0,0 l/m 0,0 km/h (0 Bft) N-NW 337 0 min 0,6 UV-I 12,2 C 16,3 C 0,0 km/h (0 Bft)
26.09.2012 10:25 13,9 C 19,9 C 14,5 C 16,8 C 16,8 C 2,9 C 90 % 91 % 76 % 1002,5 hPa 0,0 l/m 0,0 km/h (0 Bft) NW 315 0 min 0,6 UV-I 12,3 C 16,8 C 0,0 km/h (0 Bft)
26.09.2012 10:30 14,1 C 19,9 C 14,8 C 17,1 C 17,1 C 3,0 C 90 % 91 % 79 % 1002,5 hPa 0,0 l/m 0,0 km/h (0 Bft) O 90 0 min 0,6 UV-I 12,5 C 17,1 C 0,0 km/h (0 Bft)
26.09.2012 10:35 14,4 C 19,9 C 14,9 C 17,5 C 17,5 C 3,1 C 90 % 91 % 82 % 1002,5 hPa 0,0 l/m 0,0 km/h (0 Bft) S-SW 202 0 min 0,6 UV-I 12,8 C 17,5 C 0,0 km/h (0 Bft)
26.09.2012 10:40 14,6 C 19,9 C 15,1 C 17,7 C 17,7 C 3,1 C 90 % 91 % 82 % 1002,1 hPa 0,0 l/m 0,0 km/h (0 Bft) O-NO 67 0 min 0,6 UV-I 13,0 C 17,7 C 0,0 km/h (0 Bft)
26.09.2012 10:45 15,1 C 19,9 C 15,3 C 17,9 C 17,9 C 2,8 C 89 % 91 % 74 % 1002,1 hPa 0,0 l/m 0,0 km/h (0 Bft) W 270 0 min 0,7 UV-I 13,3 C 17,9 C 0,0 km/h (0 Bft)
26.09.2012 10:50 15,2 C 19,9 C 15,3 C 18,1 C 18,1 C 2,9 C 88 % 90 % 76 % 1002,1 hPa 0,0 l/m 0,0 km/h (0 Bft) SW 225 0 min 0,7 UV-I 13,2 C 18,1 C 0,0 km/h (0 Bft)
26.09.2012 10:55 15,5 C 19,9 C 15,5 C 18,2 C 18,2 C 2,7 C 88 % 90 % 71 % 1002,1 hPa 0,0 l/m 0,0 km/h (0 Bft) W-SW 247 0 min 0,7 UV-I 13,5 C 18,2 C 0,0 km/h (0 Bft)
26.09.2012 11:00 15,6 C 19,9 C 15,5 C 18,4 C 18,4 C 2,8 C 87 % 90 % 74 % 1001,7 hPa 0,0 l/m 0,0 km/h (0 Bft) N-NW 337 0 min 0,8 UV-I 13,4 C 18,4 C 0,0 km/h (0 Bft)
26.09.2012 11:05 15,9 C 19,9 C 15,7 C 18,7 C 18,7 C 2,8 C 86 % 91 % 74 % 1001,7 hPa 0,0 l/m 0,0 km/h (0 Bft) SW 225 0 min 0,8 UV-I 13,6 C 18,7 C 0,0 km/h (0 Bft)
26.09.2012 11:10 16,1 C 19,9 C 15,8 C 18,8 C 18,8 C 2,7 C 85 % 91 % 71 % 1001,7 hPa 0,0 l/m 0,0 km/h (0 Bft) W-SW 247 0 min 0,8 UV-I 13,6 C 18,8 C 0,0 km/h (0 Bft)
26.09.2012 11:15 16,3 C 19,9 C 15,9 C 18,8 C 18,8 C 2,5 C 85 % 90 % 66 % 1001,7 hPa 0,0 l/m 0,0 km/h (0 Bft) SW 225 0 min 0,9 UV-I 13,8 C 18,8 C 0,0 km/h (0 Bft)
26.09.2012 11:20 16,3 C 19,9 C 15,8 C 18,8 C 18,8 C 2,5 C 84 % 90 % 66 % 1002,2 hPa 0,0 l/m 0,0 km/h (0 Bft) SW 225 0 min 0,9 UV-I 13,6 C 18,8 C 0,0 km/h (0 Bft)
26.09.2012 11:25 16,4 C 19,9 C 15,9 C 18,8 C 18,8 C 2,4 C 83 % 90 % 63 % 1002,2 hPa 0,0 l/m 0,0 km/h (0 Bft) S 180 0 min 0,9 UV-I 13,5 C 18,8 C 0,0 km/h (0 Bft)
26.09.2012 11:30 16,5 C 19,9 C 16,0 C 18,9 C 18,9 C 2,4 C 83 % 90 % 63 % 1002,2 hPa 0,0 l/m 0,0 km/h (0 Bft) SW 225 0 min 0,9 UV-I 13,6 C 18,9 C 0,0 km/h (0 Bft)
26.09.2012 11:35 16,7 C 20,0 C 16,1 C 19,1 C 19,1 C 2,4 C 82 % 90 % 63 % 1002,2 hPa 0,0 l/m 0,0 km/h (0 Bft) O-NO 67 0 min 0,8 UV-I 13,6 C 19,1 C 0,0 km/h (0 Bft)
26.09.2012 11:40 16,8 C 19,9 C 16,3 C 19,2 C 19,2 C 2,4 C 81 % 89 % 63 % 1002,3 hPa 0,0 l/m 0,0 km/h (0 Bft) N-NO 22 0 min 0,9 UV-I 13,5 C 19,2 C 0,0 km/h (0 Bft)
26.09.2012 11:45 17,1 C 19,9 C 16,4 C 19,5 C 19,5 C 2,4 C 81 % 89 % 63 % 1002,3 hPa 0,0 l/m 0,0 km/h (0 Bft) S-SW 202 0 min 0,9 UV-I 13,8 C 19,5 C 0,0 km/h (0 Bft)
26.09.2012 11:50 17,2 C 19,9 C 16,5 C 19,8 C 19,8 C 2,6 C 81 % 89 % 68 % 1002,3 hPa 0,0 l/m 0,0 km/h (0 Bft) W 270 0 min 1,2 UV-I 13,9 C 19,8 C 0,0 km/h (0 Bft)
26.09.2012 11:55 17,5 C 19,9 C 16,7 C 20,2 C 20,2 C 2,7 C 80 % 89 % 71 % 1002,3 hPa 0,0 l/m 0,0 km/h (0 Bft) S 180 0 min 1,3 UV-I 14,0 C 20,2 C 0,0 km/h (0 Bft)
26.09.2012 12:00 17,6 C 19,9 C 16,8 C 20,6 C 20,6 C 3,0 C 80 % 89 % 79 % 1002,1 hPa 0,0 l/m 0,0 km/h (0 Bft) W 270 0 min 1,4 UV-I 14,1 C 20,6 C 0,0 km/h (0 Bft)
26.09.2012 12:05 17,9 C 19,9 C 17,1 C 21,0 C 21,0 C 3,1 C 79 % 89 % 82 % 1002,1 hPa 0,0 l/m 0,0 km/h (0 Bft) W 270 0 min 1,5 UV-I 14,2 C 21,0 C 0,0 km/h (0 Bft)
26.09.2012 12:10 18,1 C 19,9 C 17,1 C 21,4 C 21,4 C 3,3 C 79 % 89 % 87 % 1002,1 hPa 0,0 l/m 0,0 km/h (0 Bft) W-SW 247 5 min 1,5 UV-I 14,4 C 21,4 C 0,0 km/h (0 Bft)
26.09.2012 12:15 18,4 C 19,9 C 17,3 C 21,3 C 21,3 C 2,9 C 78 % 88 % 76 % 1002,1 hPa 0,0 l/m 0,0 km/h (0 Bft) W 270 0 min 1,4 UV-I 14,5 C 21,3 C 0,0 km/h (0 Bft)
26.09.2012 12:20 18,6 C 19,9 C 17,2 C 21,3 C 21,3 C 2,7 C 77 % 88 % 71 % 1002,5 hPa 0,0 l/m 0,0 km/h (0 Bft) N-NW 337 0 min 1,4 UV-I 14,5 C 21,3 C 0,0 km/h (0 Bft)
26.09.2012 12:25 18,8 C 19,8 C 17,7 C 21,7 C 21,7 C 2,9 C 77 % 87 % 76 % 1002,5 hPa 0,0 l/m 0,0 km/h (0 Bft) SW 225 0 min 1,5 UV-I 14,7 C 21,7 C 0,0 km/h (0 Bft)
26.09.2012 12:30 19,0 C 19,8 C 17,6 C 22,1 C 22,1 C 3,1 C 76 % 87 % 82 % 1002,5 hPa 0,0 l/m 0,0 km/h (0 Bft) S 180 0 min 1,8 UV-I 14,7 C 22,1 C 0,0 km/h (0 Bft)
26.09.2012 12:35 19,2 C 19,8 C 17,8 C 22,7 C 22,7 C 3,5 C 76 % 87 % 92 % 1002,5 hPa 0,0 l/m 0,0 km/h (0 Bft) SW 225 5 min 2,0 UV-I 14,9 C 22,7 C 0,0 km/h (0 Bft)
26.09.2012 12:46 19,7 C 19,8 C 18,3 C 24,3 C 24,3 C 4,6 C 75 % 86 % 100 % 1002,0 hPa 0,0 l/m 0,0 km/h (0 Bft) N 0 11 min 2,5 UV-I 15,1 C 24,3 C 0,0 km/h (0 Bft)
26.09.2012 12:55 20,0 C 19,8 C 18,5 C 25,3 C 25,3 C 5,3 C 73 % 85 % 100 % 1002,0 hPa 0,0 l/m 0,0 km/h (0 Bft) SW 225 9 min 2,5 UV-I 15,0 C 25,3 C 0,0 km/h (0 Bft)
26.09.2012 13:00 20,3 C 19,8 C 18,7 C 26,5 C 26,5 C 6,2 C 72 % 84 % 100 % 1001,9 hPa 0,0 l/m 0,0 km/h (0 Bft) SW 225 5 min 3,1 UV-I 15,1 C 26,5 C 0,0 km/h (0 Bft)
26.09.2012 13:05 20,4 C 19,9 C 18,7 C 27,9 C 27,9 C 7,5 C 71 % 84 % 100 % 1001,9 hPa 0,0 l/m 0,0 km/h (0 Bft) SW 225 5 min 3,6 UV-I 15,0 C 27,9 C 0,0 km/h (0 Bft)
26.09.2012 13:10 20,7 C 19,8 C 18,7 C 28,6 C 28,6 C 7,9 C 71 % 83 % 100 % 1001,9 hPa 0,0 l/m 0,0 km/h (0 Bft) S 180 5 min 3,4 UV-I 15,2 C 28,6 C 0,0 km/h (0 Bft)
26.09.2012 13:15 21,2 C 19,9 C 18,7 C 28,8 C 28,8 C 7,6 C 69 % 83 % 100 % 1001,9 hPa 0,0 l/m 0,0 km/h (0 Bft) S-SW 202 5 min 3,1 UV-I 15,3 C 28,8 C 0,0 km/h (0 Bft)
26.09.2012 13:20 21,7 C 19,9 C 18,7 C 28,8 C 28,8 C 7,1 C 69 % 83 % 100 % 1002,0 hPa 0,0 l/m 0,0 km/h (0 Bft) S-SW 202 5 min 2,3 UV-I 15,8 C 28,8 C 0,0 km/h (0 Bft)
26.09.2012 13:25 22,1 C 19,9 C 19,1 C 29,1 C 29,1 C 7,0 C 68 % 82 % 100 % 1002,0 hPa 0,0 l/m 0,0 km/h (0 Bft) SW 225 5 min 1,8 UV-I 15,9 C 29,1 C 0,0 km/h (0 Bft)
26.09.2012 13:30 22,2 C 19,9 C 19,1 C 29,2 C 29,2 C 7,0 C 66 % 82 % 100 % 1002,0 hPa 0,0 l/m 0,0 km/h (0 Bft) W 270 5 min 2,1 UV-I 15,5 C 29,2 C 0,0 km/h (0 Bft)
26.09.2012 13:35 22,1 C 19,9 C 19,3 C 29,2 C 29,2 C 7,1 C 65 % 81 % 100 % 1002,0 hPa 0,0 l/m 0,0 km/h (0 Bft) W-SW 247 5 min 2,8 UV-I 15,2 C 29,2 C 0,0 km/h (0 Bft)
26.09.2012 13:40 22,1 C 19,9 C 19,3 C 29,3 C 29,3 C 7,2 C 65 % 81 % 100 % 1001,8 hPa 0,0 l/m 0,0 km/h (0 Bft) W-SW 247 5 min 2,0 UV-I 15,2 C 29,3 C 0,0 km/h (0 Bft)
26.09.2012 13:45 22,3 C 19,8 C 19,7 C 29,2 C 29,2 C 6,9 C 65 % 81 % 100 % 1001,8 hPa 0,0 l/m 0,0 km/h (0 Bft) SW 225 5 min 1,6 UV-I 15,4 C 29,2 C 0,0 km/h (0 Bft)
26.09.2012 13:50 22,5 C 19,8 C 19,7 C 29,2 C 29,2 C 6,7 C 64 % 80 % 100 % 1001,8 hPa 0,0 l/m 0,0 km/h (0 Bft) W 270 5 min 1,6 UV-I 15,3 C 29,2 C 0,0 km/h (0 Bft)
26.09.2012 13:55 22,7 C 19,9 C 19,9 C 27,3 C 27,3 C 4,6 C 61 % 79 % 100 % 1001,8 hPa 0,0 l/m 1,3 km/h (1 Bft) W-SW 247 5 min 1,5 UV-I 14,8 C 27,3 C 4,8 km/h (1 Bft)
26.09.2012 14:00 22,7 C 19,9 C 19,9 C 26,5 C 26,5 C 3,8 C 60 % 78 % 100 % 1002,2 hPa 0,0 l/m 2,3 km/h (1 Bft) SW 225 5 min 1,5 UV-I 14,5 C 26,5 C 9,2 km/h (2 Bft)
26.09.2012 14:05 22,8 C 19,9 C 20,2 C 26,2 C 26,2 C 3,4 C 62 % 77 % 89 % 1002,2 hPa 0,0 l/m 3,4 km/h (1 Bft) S-SW 202 5 min 1,5 UV-I 15,1 C 26,2 C 5,8 km/h (2 Bft)
26.09.2012 14:10 23,0 C 19,9 C 20,5 C 26,8 C 26,8 C 3,8 C 60 % 77 % 100 % 1002,2 hPa 0,0 l/m 3,9 km/h (1 Bft) W-SW 247 5 min 2,0 UV-I 14,8 C 26,8 C 7,9 km/h (2 Bft)
26.09.2012 14:15 23,2 C 19,9 C 20,7 C 28,0 C 28,0 C 4,8 C 62 % 77 % 100 % 1002,2 hPa 0,0 l/m 3,9 km/h (1 Bft) W-SW 247 5 min 2,0 UV-I 15,5 C 28,0 C 4,2 km/h (1 Bft)
26.09.2012 14:20 23,2 C 20,0 C 20,9 C 28,3 C 28,3 C 5,1 C 61 % 76 % 100 % 1002,0 hPa 0,0 l/m 3,9 km/h (1 Bft) W-SW 247 5 min 2,0 UV-I 15,3 C 28,3 C 5,8 km/h (2 Bft)
26.09.2012 14:25 23,3 C 20,0 C 21,0 C 28,5 C 28,5 C 5,2 C 60 % 75 % 100 % 1002,0 hPa 0,0 l/m 3,9 km/h (1 Bft) W-SW 247 5 min 1,5 UV-I 15,1 C 28,5 C 0,0 km/h (0 Bft)
26.09.2012 14:30 23,3 C 20,0 C 21,1 C 28,6 C 28,6 C 5,3 C 60 % 75 % 100 % 1002,0 hPa 0,0 l/m 4,0 km/h (1 Bft) W 270 5 min 1,5 UV-I 15,1 C 28,6 C 5,0 km/h (1 Bft)
26.09.2012 14:35 23,5 C 20,0 C 21,3 C 28,7 C 28,7 C 5,2 C 57 % 74 % 100 % 1002,0 hPa 0,0 l/m 4,3 km/h (1 Bft) W 270 5 min 1,6 UV-I 14,5 C 28,7 C 7,4 km/h (2 Bft)
26.09.2012 14:40 23,5 C 20,0 C 21,3 C 28,3 C 28,3 C 4,8 C 59 % 73 % 100 % 1002,1 hPa 0,0 l/m 4,5 km/h (1 Bft) W 270 5 min 1,5 UV-I 15,0 C 28,3 C 11,3 km/h (2 Bft)
26.09.2012 14:45 23,5 C 20,0 C 21,5 C 28,6 C 28,6 C 5,1 C 58 % 72 % 100 % 1002,1 hPa 0,0 l/m 3,4 km/h (1 Bft) W 270 5 min 1,4 UV-I 14,7 C 28,6 C 7,4 km/h (2 Bft)
26.09.2012 14:50 23,5 C 20,0 C 21,5 C 28,6 C 28,6 C 5,1 C 58 % 72 % 100 % 1002,1 hPa 0,0 l/m 3,4 km/h (1 Bft) W 270 5 min 1,4 UV-I 14,7 C 28,6 C 7,4 km/h (2 Bft)
26.09.2012 14:55 23,6 C 20,0 C 21,7 C 28,8 C 28,8 C 5,2 C 57 % 71 % 100 % 1002,1 hPa 0,0 l/m 3,5 km/h (1 Bft) S 180 5 min 1,4 UV-I 14,6 C 28,8 C 6,0 km/h (2 Bft)
26.09.2012 15:00 23,8 C 20,0 C 21,6 C 28,4 C 28,4 C 4,6 C 56 % 70 % 100 % 1002,1 hPa 0,0 l/m 4,7 km/h (1 Bft) S-SO 157 5 min 1,4 UV-I 14,5 C 28,4 C 4,3 km/h (1 Bft)
26.09.2012 15:05 23,9 C 20,0 C 21,9 C 28,6 C 28,6 C 4,7 C 54 % 69 % 100 % 1002,5 hPa 0,0 l/m 4,7 km/h (1 Bft) SO 135 5 min 1,4 UV-I 14,0 C 28,6 C 7,1 km/h (2 Bft)
26.09.2012 15:10 24,1 C 20,1 C 22,0 C 28,7 C 28,7 C 4,6 C 56 % 69 % 100 % 1002,5 hPa 0,0 l/m 5,5 km/h (1 Bft) SW 225 5 min 1,4 UV-I 14,8 C 28,7 C 12,7 km/h (3 Bft)
26.09.2012 15:15 24,2 C 20,1 C 22,0 C 28,5 C 28,5 C 4,3 C 56 % 69 % 100 % 1002,5 hPa 0,0 l/m 5,0 km/h (1 Bft) W 270 5 min 1,5 UV-I 14,9 C 28,5 C 1,9 km/h (1 Bft)
26.09.2012 15:20 24,5 C 20,1 C 22,2 C 28,7 C 28,7 C 4,2 C 55 % 69 % 100 % 1002,5 hPa 0,0 l/m 4,3 km/h (1 Bft) SW 225 5 min 1,4 UV-I 14,9 C 28,7 C 3,2 km/h (1 Bft)
26.09.2012 15:25 24,4 C 20,1 C 22,3 C 28,9 C 28,9 C 4,5 C 56 % 69 % 100 % 1002,5 hPa 0,0 l/m 3,5 km/h (1 Bft) W-SW 247 5 min 1,2 UV-I 15,0 C 28,9 C 3,1 km/h (1 Bft)
26.09.2012 15:30 24,6 C 20,1 C 22,3 C 29,0 C 29,0 C 4,4 C 55 % 69 % 100 % 1002,5 hPa 0,0 l/m 2,9 km/h (1 Bft) SW 225 5 min 1,2 UV-I 14,9 C 29,0 C 1,6 km/h (1 Bft)
26.09.2012 15:35 24,7 C 20,1 C 22,3 C 29,0 C 29,0 C 4,3 C 54 % 68 % 100 % 1002,5 hPa 0,0 l/m 3,1 km/h (1 Bft) S 180 5 min 1,2 UV-I 14,8 C 29,0 C 3,1 km/h (1 Bft)
26.09.2012 15:40 25,2 C 20,2 C 22,3 C 29,0 C 29,0 C 3,8 C 54 % 68 % 100 % 1002,5 hPa 0,0 l/m 3,2 km/h (1 Bft) S 180 5 min 1,2 UV-I 15,2 C 29,0 C 6,1 km/h (2 Bft)
26.09.2012 15:45 25,5 C 20,2 C 22,4 C 29,1 C 29,1 C 3,6 C 54 % 66 % 95 % 1002,6 hPa 0,0 l/m 3,4 km/h (1 Bft) NW 315 5 min 1,2 UV-I 15,5 C 29,1 C 4,8 km/h (1 Bft)
26.09.2012 15:50 25,6 C 20,2 C 22,3 C 28,9 C 28,9 C 3,3 C 53 % 67 % 87 % 1002,6 hPa 0,0 l/m 2,6 km/h (1 Bft) W-SW 247 5 min 1,1 UV-I 15,3 C 28,9 C 4,2 km/h (1 Bft)
26.09.2012 15:55 25,2 C 20,2 C 22,1 C 28,1 C 28,1 C 2,9 C 52 % 67 % 76 % 1002,6 hPa 0,0 l/m 2,6 km/h (1 Bft) S-SW 202 0 min 0,9 UV-I 14,6 C 28,1 C 4,2 km/h (1 Bft)
26.09.2012 16:00 24,7 C 20,3 C 21,6 C 26,6 C 26,6 C 1,9 C 54 % 68 % 50 % 1002,6 hPa 0,0 l/m 2,7 km/h (1 Bft) NW 315 0 min 0,9 UV-I 14,8 C 26,6 C 2,9 km/h (1 Bft)
26.09.2012 16:05 24,8 C 20,4 C 21,8 C 26,7 C 26,7 C 1,9 C 55 % 69 % 50 % 1002,6 hPa 0,0 l/m 1,9 km/h (1 Bft) N-NW 337 0 min 0,7 UV-I 15,1 C 26,7 C 0,0 km/h (0 Bft)
26.09.2012 16:10 25,3 C 20,4 C 22,0 C 28,4 C 28,4 C 3,1 C 54 % 68 % 82 % 1002,6 hPa 0,0 l/m 1,1 km/h (1 Bft) N-NW 337 0 min 0,8 UV-I 15,3 C 28,4 C 0,0 km/h (0 Bft)
26.09.2012 16:15 25,4 C 20,4 C 21,9 C 28,1 C 28,1 C 2,7 C 54 % 68 % 71 % 1002,6 hPa 0,0 l/m 0,5 km/h (0 Bft) NW 315 0 min 0,8 UV-I 15,4 C 28,1 C 0,0 km/h (0 Bft)
26.09.2012 16:20 25,3 C 20,4 C 21,7 C 26,8 C 26,8 C 1,5 C 53 % 67 % 39 % 1002,6 hPa 0,0 l/m 0,0 km/h (0 Bft) W 270 0 min 0,5 UV-I 15,0 C 26,8 C 0,0 km/h (0 Bft)
26.09.2012 16:25 24,9 C 20,4 C 21,6 C 26,4 C 26,4 C 1,5 C 53 % 67 % 39 % 1002,3 hPa 0,0 l/m 0,3 km/h (0 Bft) W 270 0 min 0,5 UV-I 14,6 C 26,4 C 0,0 km/h (0 Bft)
26.09.2012 16:30 24,7 C 20,5 C 21,7 C 26,2 C 26,2 C 1,5 C 54 % 67 % 39 % 1002,3 hPa 0,0 l/m 0,6 km/h (0 Bft) SW 225 0 min 0,5 UV-I 14,8 C 26,2 C 0,0 km/h (0 Bft)
26.09.2012 16:35 24,5 C 20,5 C 21,6 C 25,7 C 25,7 C 1,2 C 54 % 67 % 32 % 1002,3 hPa 0,0 l/m 0,8 km/h (0 Bft) W-NW 292 0 min 0,5 UV-I 14,6 C 25,7 C 3,4 km/h (1 Bft)
26.09.2012 16:40 24,1 C 20,5 C 21,4 C 24,8 C 24,8 C 0,7 C 54 % 67 % 18 % 1002,3 hPa 0,0 l/m 1,6 km/h (1 Bft) W-SW 247 0 min 0,4 UV-I 14,2 C 24,8 C 2,1 km/h (1 Bft)
26.09.2012 16:45 23,8 C 20,5 C 21,2 C 24,5 C 24,5 C 0,7 C 54 % 68 % 18 % 1002,5 hPa 0,0 l/m 1,8 km/h (1 Bft) S-SW 202 0 min 0,4 UV-I 13,9 C 24,5 C 0,0 km/h (0 Bft)
26.09.2012 16:50 23,6 C 20,5 C 21,2 C 24,2 C 24,2 C 0,6 C 55 % 68 % 16 % 1002,5 hPa 0,0 l/m 0,8 km/h (0 Bft) O-NO 67 0 min 0,3 UV-I 14,0 C 24,2 C 0,0 km/h (0 Bft)
26.09.2012 16:55 23,6 C 20,6 C 21,3 C 24,0 C 24,0 C 0,4 C 57 % 70 % 11 % 1002,5 hPa 0,0 l/m 0,3 km/h (0 Bft) N-NO 22 0 min 0,3 UV-I 14,6 C 24,0 C 0,0 km/h (0 Bft)
26.09.2012 17:00 23,5 C 20,6 C 21,1 C 23,7 C 23,7 C 0,2 C 58 % 70 % 5 % 1002,5 hPa 0,0 l/m 0,0 km/h (0 Bft) O-NO 67 0 min 0,3 UV-I 14,7 C 23,7 C 0,0 km/h (0 Bft)
26.09.2012 17:05 23,3 C 20,6 C 21,1 C 23,7 C 23,7 C 0,4 C 58 % 71 % 11 % 1002,6 hPa 0,0 l/m 0,0 km/h (0 Bft) NO 45 0 min 0,3 UV-I 14,6 C 23,7 C 0,0 km/h (0 Bft)
26.09.2012 17:10 23,3 C 20,6 C 20,9 C 23,6 C 23,6 C 0,3 C 61 % 71 % 8 % 1002,6 hPa 0,0 l/m 0,0 km/h (0 Bft) O-NO 67 0 min 0,1 UV-I 15,3 C 23,6 C 0,0 km/h (0 Bft)
26.09.2012 17:15 23,1 C 20,6 C 20,8 C 23,5 C 23,5 C 0,4 C 61 % 71 % 11 % 1002,6 hPa 0,0 l/m 0,0 km/h (0 Bft) NO 45 0 min 0,1 UV-I 15,2 C 23,5 C 0,0 km/h (0 Bft)
26.09.2012 17:20 23,0 C 20,7 C 20,8 C 23,2 C 23,2 C 0,2 C 61 % 71 % 5 % 1002,6 hPa 0,0 l/m 0,0 km/h (0 Bft) O-NO 67 0 min 0,0 UV-I 15,1 C 23,2 C 0,0 km/h (0 Bft)
26.09.2012 17:25 22,8 C 20,7 C 20,7 C 23,0 C 23,0 C 0,2 C 61 % 72 % 5 % 1002,4 hPa 0,0 l/m 0,0 km/h (0 Bft) O-SO 112 0 min 0,0 UV-I 14,9 C 23,0 C 0,0 km/h (0 Bft)
26.09.2012 17:30 22,7 C 20,7 C 20,5 C 22,8 C 22,8 C 0,1 C 62 % 73 % 3 % 1002,4 hPa 0,0 l/m 0,0 km/h (0 Bft) NO 45 0 min 0,0 UV-I 15,0 C 22,8 C 0,0 km/h (0 Bft)
26.09.2012 17:35 22,5 C 20,7 C 20,4 C 22,8 C 22,8 C 0,3 C 63 % 74 % 8 % 1002,4 hPa 0,0 l/m 0,0 km/h (0 Bft) NO 45 0 min 0,0 UV-I 15,1 C 22,8 C 0,0 km/h (0 Bft)
26.09.2012 17:40 22,5 C 20,7 C 20,5 C 22,8 C 22,8 C 0,3 C 61 % 73 % 8 % 1002,4 hPa 0,0 l/m 0,2 km/h (0 Bft) O-NO 67 0 min 0,0 UV-I 14,6 C 22,8 C 0,0 km/h (0 Bft)
26.09.2012 17:45 22,3 C 20,7 C 20,4 C 22,6 C 22,6 C 0,3 C 62 % 72 % 8 % 1002,4 hPa 0,0 l/m 0,2 km/h (0 Bft) O-SO 112 0 min 0,0 UV-I 14,7 C 22,6 C 0,0 km/h (0 Bft)
26.09.2012 17:50 22,1 C 20,8 C 20,4 C 22,3 C 22,3 C 0,2 C 63 % 73 % 5 % 1002,4 hPa 0,0 l/m 0,2 km/h (0 Bft) O-NO 67 0 min 0,0 UV-I 14,7 C 22,3 C 0,0 km/h (0 Bft)
26.09.2012 17:55 22,0 C 20,8 C 20,3 C 22,1 C 22,1 C 0,1 C 63 % 74 % 3 % 1002,4 hPa 0,0 l/m 0,0 km/h (0 Bft) O 90 0 min 0,0 UV-I 14,6 C 22,1 C 0,0 km/h (0 Bft)
26.09.2012 18:00 21,9 C 20,8 C 20,0 C 21,9 C 21,9 C 0,0 C 63 % 74 % 0 % 1002,4 hPa 0,0 l/m 0,0 km/h (0 Bft) O-NO 67 0 min 0,0 UV-I 14,5 C 21,9 C 0,0 km/h (0 Bft)
26.09.2012 18:05 21,7 C 20,8 C 19,9 C 21,7 C 21,7 C 0,0 C 64 % 74 % 0 % 1002,9 hPa 0,0 l/m 0,0 km/h (0 Bft) O 90 0 min 0,0 UV-I 14,6 C 21,7 C 0,0 km/h (0 Bft)
26.09.2012 18:10 21,4 C 20,8 C 19,7 C 21,4 C 21,3 C 0,0 C 65 % 75 % 0 % 1002,9 hPa 0,0 l/m 0,0 km/h (0 Bft) O-NO 67 0 min 0,0 UV-I 14,5 C 21,3 C 0,0 km/h (0 Bft)
26.09.2012 18:15 21,2 C 20,8 C 19,6 C 21,2 C 21,1 C 0,0 C 65 % 76 % 0 % 1002,9 hPa 0,0 l/m 0,3 km/h (0 Bft) O 90 0 min 0,0 UV-I 14,4 C 21,1 C 0,0 km/h (0 Bft)
26.09.2012 18:20 21,1 C 20,8 C 19,3 C 21,0 C 20,8 C 0,0 C 66 % 76 % 0 % 1002,9 hPa 0,0 l/m 0,5 km/h (0 Bft) O-NO 67 0 min 0,0 UV-I 14,5 C 20,8 C 2,3 km/h (1 Bft)
26.09.2012 18:25 20,9 C 20,9 C 19,2 C 20,8 C 20,7 C 0,0 C 67 % 77 % 0 % 1002,8 hPa 0,0 l/m 1,0 km/h (0 Bft) O 90 0 min 0,0 UV-I 14,5 C 20,7 C 2,3 km/h (1 Bft)
26.09.2012 18:30 20,7 C 20,9 C 19,2 C 20,6 C 20,5 C 0,0 C 67 % 77 % 0 % 1002,8 hPa 0,0 l/m 2,1 km/h (1 Bft) O-NO 67 0 min 0,0 UV-I 14,3 C 20,5 C 2,4 km/h (1 Bft)
26.09.2012 18:35 20,7 C 20,9 C 19,2 C 20,6 C 20,4 C 0,0 C 68 % 77 % 0 % 1002,8 hPa 0,0 l/m 2,1 km/h (1 Bft) O-NO 67 0 min 0,0 UV-I 14,6 C 20,4 C 0,0 km/h (0 Bft)
26.09.2012 18:46 20,1 C 20,9 C 18,8 C 19,9 C 19,4 C 0,0 C 70 % 78 % 0 % 1002,8 hPa 0,0 l/m 0,0 km/h (0 Bft) N 0 0 min 0,0 UV-I 14,5 C 19,4 C 0,0 km/h (0 Bft)
26.09.2012 18:55 20,0 C 20,9 C 18,7 C 19,7 C 19,0 C 0,0 C 70 % 79 % 0 % 1002,8 hPa 0,0 l/m 0,0 km/h (0 Bft) W-SW 247 0 min 0,0 UV-I 14,4 C 19,0 C 0,0 km/h (0 Bft)
26.09.2012 19:00 19,7 C 21,0 C 18,5 C 19,4 C 18,7 C 0,0 C 71 % 80 % 0 % 1002,8 hPa 0,0 l/m 0,0 km/h (0 Bft) O 90 0 min 0,0 UV-I 14,3 C 18,7 C 0,0 km/h (0 Bft)
26.09.2012 19:05 19,5 C 21,0 C 18,3 C 19,2 C 18,5 C 0,0 C 71 % 79 % 0 % 1002,9 hPa 0,0 l/m 0,0 km/h (0 Bft) O-NO 67 0 min 0,0 UV-I 14,1 C 18,5 C 0,0 km/h (0 Bft)
26.09.2012 19:10 19,2 C 21,0 C 18,0 C 18,8 C 18,1 C 0,0 C 73 % 80 % 0 % 1002,9 hPa 0,0 l/m 0,0 km/h (0 Bft) O-NO 67 0 min 0,0 UV-I 14,2 C 18,1 C 0,0 km/h (0 Bft)
26.09.2012 19:15 19,1 C 21,0 C 18,0 C 18,7 C 18,0 C 0,0 C 74 % 81 % 0 % 1002,9 hPa 0,0 l/m 0,0 km/h (0 Bft) O-NO 67 0 min 0,0 UV-I 14,4 C 18,0 C 0,0 km/h (0 Bft)
26.09.2012 19:20 18,9 C 21,1 C 17,9 C 18,5 C 17,8 C 0,0 C 75 % 81 % 0 % 1002,9 hPa 0,0 l/m 0,0 km/h (0 Bft) O-NO 67 0 min 0,0 UV-I 14,4 C 17,8 C 0,0 km/h (0 Bft)
26.09.2012 19:25 18,7 C 21,1 C 17,9 C 18,4 C 17,7 C 0,0 C 75 % 82 % 0 % 1003,0 hPa 0,0 l/m 0,0 km/h (0 Bft) O-NO 67 0 min 0,0 UV-I 14,2 C 17,7 C 0,0 km/h (0 Bft)
26.09.2012 19:30 18,5 C 21,2 C 17,6 C 18,2 C 17,6 C 0,0 C 76 % 82 % 0 % 1003,0 hPa 0,0 l/m 0,0 km/h (0 Bft) O 90 0 min 0,0 UV-I 14,2 C 17,6 C 0,0 km/h (0 Bft)
26.09.2012 19:35 18,5 C 21,2 C 17,5 C 18,2 C 17,5 C 0,0 C 76 % 82 % 0 % 1003,0 hPa 0,0 l/m 0,0 km/h (0 Bft) O-NO 67 0 min 0,0 UV-I 14,2 C 17,5 C 0,0 km/h (0 Bft)
26.09.2012 19:40 18,2 C 21,2 C 17,3 C 17,9 C 17,3 C 0,0 C 77 % 83 % 0 % 1003,0 hPa 0,0 l/m 0,0 km/h (0 Bft) SW 225 0 min 0,0 UV-I 14,1 C 17,3 C 0,0 km/h (0 Bft)
26.09.2012 19:45 18,1 C 21,2 C 17,2 C 17,8 C 17,2 C 0,0 C 78 % 83 % 0 % 1002,9 hPa 0,0 l/m 0,0 km/h (0 Bft) W-SW 247 0 min 0,0 UV-I 14,2 C 17,2 C 0,0 km/h (0 Bft)
26.09.2012 19:50 17,9 C 21,2 C 17,2 C 17,6 C 17,0 C 0,0 C 79 % 84 % 0 % 1002,9 hPa 0,0 l/m 0,0 km/h (0 Bft) O 90 0 min 0,0 UV-I 14,2 C 17,0 C 0,0 km/h (0 Bft)
26.09.2012 19:55 17,6 C 21,3 C 17,1 C 17,4 C 16,9 C 0,0 C 79 % 84 % 0 % 1002,9 hPa 0,0 l/m 0,2 km/h (0 Bft) O 90 0 min 0,0 UV-I 13,9 C 16,9 C 1,6 km/h (1 Bft)
26.09.2012 20:00 17,1 C 21,3 C 16,7 C 16,9 C 16,6 C 0,0 C 79 % 84 % 0 % 1002,9 hPa 0,0 l/m 0,2 km/h (0 Bft) O-SO 112 0 min 0,0 UV-I 13,4 C 16,6 C 0,0 km/h (0 Bft)
26.09.2012 20:05 16,9 C 21,3 C 16,6 C 16,8 C 16,5 C 0,0 C 80 % 85 % 0 % 1003,2 hPa 0,0 l/m 0,0 km/h (0 Bft) O-NO 67 0 min 0,0 UV-I 13,4 C 16,5 C 0,0 km/h (0 Bft)
26.09.2012 20:10 16,7 C 21,3 C 16,4 C 16,6 C 16,4 C 0,0 C 80 % 85 % 0 % 1003,2 hPa 0,0 l/m 0,0 km/h (0 Bft) O-NO 67 0 min 0,0 UV-I 13,2 C 16,4 C 0,0 km/h (0 Bft)
26.09.2012 20:15 16,4 C 21,3 C 16,4 C 16,4 C 16,3 C 0,0 C 81 % 85 % 0 % 1003,2 hPa 0,0 l/m 0,0 km/h (0 Bft) O-NO 67 0 min 0,0 UV-I 13,1 C 16,3 C 0,0 km/h (0 Bft)
26.09.2012 20:20 16,3 C 21,3 C 16,3 C 16,2 C 16,1 C 0,0 C 81 % 86 % 0 % 1003,2 hPa 0,0 l/m 0,0 km/h (0 Bft) W-SW 247 0 min 0,0 UV-I 13,0 C 16,1 C 0,0 km/h (0 Bft)
26.09.2012 20:25 16,3 C 21,3 C 16,3 C 16,2 C 16,1 C 0,0 C 81 % 86 % 0 % 1003,3 hPa 0,0 l/m 0,0 km/h (0 Bft) S 180 0 min 0,0 UV-I 13,0 C 16,1 C 0,0 km/h (0 Bft)
26.09.2012 20:30 16,1 C 21,3 C 16,0 C 16,0 C 15,9 C 0,0 C 81 % 86 % 0 % 1003,3 hPa 0,0 l/m 0,0 km/h (0 Bft) O 90 0 min 0,0 UV-I 12,8 C 15,9 C 0,0 km/h (0 Bft)
26.09.2012 20:35 15,9 C 21,3 C 15,9 C 15,9 C 15,8 C 0,0 C 81 % 86 % 0 % 1003,3 hPa 0,0 l/m 0,0 km/h (0 Bft) O 90 0 min 0,0 UV-I 12,6 C 15,8 C 0,0 km/h (0 Bft)
26.09.2012 20:40 15,7 C 21,3 C 15,9 C 15,8 C 15,8 C 0,1 C 82 % 86 % 0 % 1003,3 hPa 0,0 l/m 0,0 km/h (0 Bft) O-NO 67 0 min 0,0 UV-I 12,6 C 15,8 C 0,0 km/h (0 Bft)
26.09.2012 20:45 15,6 C 21,3 C 15,9 C 15,7 C 15,7 C 0,1 C 82 % 86 % 0 % 1003,3 hPa 0,0 l/m 0,0 km/h (0 Bft) O-NO 67 0 min 0,0 UV-I 12,5 C 15,7 C 0,0 km/h (0 Bft)
26.09.2012 20:50 15,5 C 21,3 C 15,8 C 15,7 C 15,7 C 0,2 C 82 % 87 % 0 % 1003,3 hPa 0,0 l/m 0,0 km/h (0 Bft) S-SW 202 0 min 0,0 UV-I 12,4 C 15,7 C 0,0 km/h (0 Bft)
26.09.2012 20:55 15,5 C 21,3 C 15,7 C 15,6 C 15,6 C 0,1 C 82 % 87 % 0 % 1003,3 hPa 0,0 l/m 0,0 km/h (0 Bft) S-SW 202 0 min 0,0 UV-I 12,4 C 15,6 C 0,0 km/h (0 Bft)
26.09.2012 21:00 15,3 C 21,3 C 15,7 C 15,6 C 15,6 C 0,3 C 83 % 87 % 0 % 1003,3 hPa 0,0 l/m 0,0 km/h (0 Bft) N 360 0 min 0,0 UV-I 12,4 C 15,6 C 0,0 km/h (0 Bft)
26.09.2012 21:05 15,2 C 21,3 C 15,6 C 15,6 C 15,6 C 0,4 C 83 % 87 % 0 % 1003,4 hPa 0,0 l/m 0,0 km/h (0 Bft) N-NW 337 0 min 0,0 UV-I 12,3 C 15,6 C 0,0 km/h (0 Bft)
26.09.2012 21:10 15,2 C 21,5 C 15,7 C 15,6 C 15,6 C 0,4 C 83 % 88 % 0 % 1003,4 hPa 0,0 l/m 0,0 km/h (0 Bft) O 90 0 min 0,0 UV-I 12,3 C 15,6 C 0,0 km/h (0 Bft)
26.09.2012 21:15 15,1 C 21,5 C 15,6 C 15,5 C 15,5 C 0,4 C 83 % 88 % 0 % 1003,4 hPa 0,0 l/m 0,0 km/h (0 Bft) NO 45 0 min 0,0 UV-I 12,2 C 15,5 C 0,0 km/h (0 Bft)
26.09.2012 21:20 15,0 C 21,4 C 15,6 C 15,4 C 15,4 C 0,4 C 84 % 88 % 0 % 1003,4 hPa 0,0 l/m 0,0 km/h (0 Bft) SW 225 0 min 0,0 UV-I 12,3 C 15,4 C 0,0 km/h (0 Bft)
26.09.2012 21:25 15,1 C 21,4 C 15,5 C 15,2 C 15,2 C 0,1 C 84 % 88 % 0 % 1003,6 hPa 0,0 l/m 0,0 km/h (0 Bft) SW 225 0 min 0,0 UV-I 12,4 C 15,2 C 0,0 km/h (0 Bft)
26.09.2012 21:30 14,9 C 21,4 C 15,4 C 14,9 C 14,9 C 0,0 C 84 % 88 % 0 % 1003,6 hPa 0,0 l/m 0,0 km/h (0 Bft) W-SW 247 0 min 0,0 UV-I 12,2 C 14,9 C 0,0 km/h (0 Bft)
26.09.2012 21:35 14,8 C 21,5 C 15,4 C 14,8 C 14,7 C 0,0 C 84 % 88 % 0 % 1003,6 hPa 0,0 l/m 0,0 km/h (0 Bft) NO 45 0 min 0,0 UV-I 12,1 C 14,7 C 0,0 km/h (0 Bft)
26.09.2012 21:40 14,6 C 21,5 C 15,2 C 14,7 C 14,7 C 0,1 C 84 % 88 % 0 % 1003,6 hPa 0,0 l/m 0,2 km/h (0 Bft) O-NO 67 0 min 0,0 UV-I 11,9 C 14,7 C 1,8 km/h (1 Bft)
26.09.2012 21:45 14,6 C 21,5 C 15,1 C 14,6 C 14,6 C 0,0 C 85 % 89 % 0 % 1003,6 hPa 0,0 l/m 0,6 km/h (0 Bft) O-SO 112 0 min 0,0 UV-I 12,1 C 14,6 C 1,9 km/h (1 Bft)
26.09.2012 21:50 14,4 C 21,5 C 15,1 C 14,6 C 14,6 C 0,2 C 85 % 89 % 0 % 1003,6 hPa 0,0 l/m 0,8 km/h (0 Bft) O 90 0 min 0,0 UV-I 11,9 C 14,6 C 0,0 km/h (0 Bft)
26.09.2012 21:55 14,4 C 21,5 C 14,9 C 14,5 C 14,5 C 0,1 C 85 % 88 % 0 % 1003,6 hPa 0,0 l/m 0,5 km/h (0 Bft) O 90 0 min 0,0 UV-I 11,9 C 14,5 C 0,0 km/h (0 Bft)
26.09.2012 22:00 14,3 C 21,5 C 14,8 C 14,5 C 14,5 C 0,2 C 85 % 89 % 0 % 1003,6 hPa 0,0 l/m 0,0 km/h (0 Bft) O-NO 67 0 min 0,0 UV-I 11,8 C 14,5 C 0,0 km/h (0 Bft)
26.09.2012 22:05 14,3 C 21,5 C 14,8 C 14,5 C 14,5 C 0,2 C 86 % 89 % 0 % 1004,0 hPa 0,0 l/m 0,0 km/h (0 Bft) O-SO 112 0 min 0,0 UV-I 12,0 C 14,5 C 0,0 km/h (0 Bft)
26.09.2012 22:10 14,1 C 21,5 C 14,8 C 14,3 C 14,3 C 0,2 C 86 % 89 % 0 % 1004,0 hPa 0,0 l/m 0,0 km/h (0 Bft) NW 315 0 min 0,0 UV-I 11,8 C 14,3 C 0,0 km/h (0 Bft)
26.09.2012 22:15 14,1 C 21,5 C 14,8 C 14,1 C 14,1 C 0,0 C 86 % 89 % 0 % 1004,0 hPa 0,0 l/m 0,0 km/h (0 Bft) N-NO 22 0 min 0,0 UV-I 11,8 C 14,1 C 0,0 km/h (0 Bft)
26.09.2012 22:20 14,0 C 21,5 C 14,6 C 14,0 C 14,0 C 0,0 C 86 % 89 % 0 % 1004,0 hPa 0,0 l/m 0,0 km/h (0 Bft) O-NO 67 0 min 0,0 UV-I 11,7 C 14,0 C 0,0 km/h (0 Bft)
26.09.2012 22:25 14,0 C 21,5 C 14,6 C 14,1 C 14,1 C 0,1 C 86 % 90 % 0 % 1004,0 hPa 0,0 l/m 0,0 km/h (0 Bft) O-SO 112 0 min 0,0 UV-I 11,7 C 14,1 C 0,0 km/h (0 Bft)
26.09.2012 22:30 13,9 C 21,5 C 14,7 C 14,1 C 14,1 C 0,2 C 86 % 90 % 0 % 1004,0 hPa 0,0 l/m 0,0 km/h (0 Bft) O-SO 112 0 min 0,0 UV-I 11,6 C 14,1 C 0,0 km/h (0 Bft)
26.09.2012 22:35 13,8 C 21,4 C 14,7 C 14,1 C 14,1 C 0,3 C 86 % 90 % 0 % 1004,0 hPa 0,0 l/m 0,0 km/h (0 Bft) S 180 0 min 0,0 UV-I 11,5 C 14,1 C 0,0 km/h (0 Bft)
26.09.2012 22:40 13,9 C 21,5 C 14,6 C 14,2 C 14,2 C 0,3 C 86 % 90 % 0 % 1004,0 hPa 0,0 l/m 0,0 km/h (0 Bft) W-SW 247 0 min 0,0 UV-I 11,6 C 14,2 C 0,0 km/h (0 Bft)
26.09.2012 22:45 13,9 C 21,4 C 14,7 C 14,3 C 14,3 C 0,4 C 87 % 90 % 0 % 1003,9 hPa 0,0 l/m 0,0 km/h (0 Bft) N-NW 337 0 min 0,0 UV-I 11,8 C 14,3 C 0,0 km/h (0 Bft)
26.09.2012 22:50 13,9 C 21,4 C 14,7 C 14,3 C 14,3 C 0,4 C 87 % 90 % 0 % 1003,9 hPa 0,0 l/m 0,0 km/h (0 Bft) O-NO 67 0 min 0,0 UV-I 11,8 C 14,3 C 0,0 km/h (0 Bft)
26.09.2012 22:55 13,8 C 21,4 C 14,7 C 14,4 C 14,4 C 0,6 C 87 % 90 % 0 % 1003,9 hPa 0,0 l/m 0,0 km/h (0 Bft) W-SW 247 0 min 0,0 UV-I 11,7 C 14,4 C 0,0 km/h (0 Bft)
26.09.2012 23:00 13,9 C 21,4 C 14,7 C 14,3 C 14,3 C 0,4 C 87 % 90 % 0 % 1003,9 hPa 0,0 l/m 0,0 km/h (0 Bft) S 180 0 min 0,0 UV-I 11,8 C 14,3 C 0,0 km/h (0 Bft)
26.09.2012 23:05 13,9 C 21,4 C 14,7 C 14,1 C 14,1 C 0,2 C 87 % 90 % 0 % 1003,8 hPa 0,0 l/m 0,0 km/h (0 Bft) O-NO 67 0 min 0,0 UV-I 11,8 C 14,1 C 0,0 km/h (0 Bft)
26.09.2012 23:10 13,7 C 21,5 C 14,5 C 14,0 C 14,0 C 0,3 C 87 % 90 % 0 % 1003,8 hPa 0,0 l/m 0,0 km/h (0 Bft) O 90 0 min 0,0 UV-I 11,6 C 14,0 C 0,0 km/h (0 Bft)
26.09.2012 23:15 13,6 C 21,5 C 14,4 C 14,0 C 14,0 C 0,4 C 87 % 90 % 0 % 1003,8 hPa 0,0 l/m 0,0 km/h (0 Bft) O-NO 67 0 min 0,0 UV-I 11,5 C 14,0 C 0,0 km/h (0 Bft)
26.09.2012 23:20 13,6 C 21,5 C 14,4 C 14,0 C 14,0 C 0,4 C 87 % 90 % 0 % 1003,8 hPa 0,0 l/m 0,0 km/h (0 Bft) O 90 0 min 0,0 UV-I 11,5 C 14,0 C 0,0 km/h (0 Bft)
26.09.2012 23:25 13,7 C 21,4 C 14,4 C 14,2 C 14,2 C 0,5 C 88 % 90 % 0 % 1003,8 hPa 0,0 l/m 0,0 km/h (0 Bft) W-SW 247 0 min 0,0 UV-I 11,7 C 14,2 C 0,0 km/h (0 Bft)
26.09.2012 23:30 13,7 C 21,4 C 14,5 C 14,3 C 14,3 C 0,6 C 88 % 90 % 0 % 1003,8 hPa 0,0 l/m 0,0 km/h (0 Bft) O 90 0 min 0,0 UV-I 11,7 C 14,3 C 0,0 km/h (0 Bft)
26.09.2012 23:35 13,6 C 21,4 C 14,5 C 14,3 C 14,3 C 0,7 C 88 % 90 % 0 % 1003,8 hPa 0,0 l/m 0,2 km/h (0 Bft) O 90 0 min 0,0 UV-I 11,6 C 14,3 C 1,8 km/h (1 Bft)
26.09.2012 23:40 13,6 C 21,4 C 14,5 C 14,5 C 14,5 C 0,9 C 88 % 90 % 0 % 1003,8 hPa 0,0 l/m 0,3 km/h (0 Bft) O-NO 67 0 min 0,0 UV-I 11,6 C 14,5 C 0,0 km/h (0 Bft)
26.09.2012 23:45 13,6 C 21,4 C 14,5 C 14,7 C 14,7 C 1,1 C 87 % 90 % 0 % 1003,4 hPa 0,0 l/m 0,3 km/h (0 Bft) O-NO 67 0 min 0,0 UV-I 11,5 C 14,7 C 0,0 km/h (0 Bft)
26.09.2012 23:50 13,6 C 21,2 C 14,5 C 14,8 C 14,8 C 1,2 C 86 % 90 % 0 % 1003,4 hPa 0,0 l/m 0,0 km/h (0 Bft) O-SO 112 0 min 0,0 UV-I 11,3 C 14,8 C 0,0 km/h (0 Bft)
26.09.2012 23:55 13,7 C 21,3 C 14,7 C 14,9 C 14,9 C 1,2 C 86 % 90 % 0 % 1003,4 hPa 0,0 l/m 0,2 km/h (0 Bft) SO 135 0 min 0,0 UV-I 11,4 C 14,9 C 0,0 km/h (0 Bft)
_ Min-Zeit 06:35 12:25 07:45 06:35 06:35 03:35 15:55 15:45 00:00 11:00 - 00:00 - - - 00:00 06:35 06:35 00:00
Minimum _ 9,8 C 19,8 C 10,8 C 10,1 C 10,1 C 0,0 C 52 % 66 % 0 % 1001,7 hPa - 0,0 km/h (0 Bft) - - - 0,0 UV-I 8,2 C 10,1 C 0,0 km/h (0 Bft)
_ Max-Zeit 15:50 21:10 15:45 13:40 13:40 13:10 09:45 08:55 12:46 00:00 00:00 15:10 - - 12:46 13:05 13:25 13:40 15:10
Maximum _ 25,6 C 21,5 C 22,4 C 29,3 C 29,3 C 7,9 C 93 % 93 % 100 % 1005,8 hPa 0,0 l/m 5,5 km/h
SW (1 Bft)
- - 11 min 3,6 UV-I 15,9 C 29,3 C 12,7 km/h
SW (3 Bft)
Durchschnitt _ 15,7 C 20,6 C 15,5 C 17,0 C 17,0 C 1,4 C 80 % 86 % 27 % 1003,2 hPa #0,0 l/m 0,4 km/h (0 Bft) W-SW - #3:45 h 1,2 UV-I 11,9 C 17,0 C 0,7 km/h (0 Bft)
2012 www.wetterstation-wechselburg.de